Time;durP1;ratioP1;P1;durP2;ratioP2;P2;SDS_P1;SDS_P2;PMS_P1;PMS_P2;Temp;Humidity;BMP_temperature;BMP_pressure;BME280_temperature;BME280_humidity;BME280_pressure;Samples;Min_cycle;Max_cycle;Signal;HPM_P1;HPM_P2
2021/05/23 00:00:34;;;;;;;3.92;0.65;;;11.90;76.10;;;;;;5074638;28;20032;-63
2021/05/23 00:03:04;;;;;;;0.55;0.52;;;11.80;76.00;;;;;;5073735;28;20028;-63
2021/05/23 00:05:30;;;;;;;3.38;0.93;;;11.90;76.00;;;;;;5074403;28;20487;-63
2021/05/23 00:08:04;;;;;;;2.47;1.10;;;11.80;75.90;;;;;;5074137;28;20550;-63
2021/05/23 00:10:37;;;;;;;3.67;0.82;;;11.80;75.90;;;;;;5073887;28;20108;-63
2021/05/23 00:13:04;;;;;;;1.40;0.80;;;11.80;76.00;;;;;;5074433;28;20051;-63
2021/05/23 00:15:36;;;;;;;4.07;1.20;;;11.70;75.90;;;;;;5074455;28;20028;-63
2021/05/23 00:18:02;;;;;;;6.70;1.52;;;11.70;75.90;;;;;;5073726;28;20035;-63
2021/05/23 00:20:28;;;;;;;4.35;1.33;;;11.70;75.90;;;;;;5074280;28;20479;-63
2021/05/23 00:22:54;;;;;;;3.97;1.63;;;11.60;75.80;;;;;;5074167;28;20120;-63
2021/05/23 00:25:22;;;;;;;1.20;1.08;;;11.70;75.90;;;;;;5073324;28;20086;-63
2021/05/23 00:27:47;;;;;;;3.75;2.15;;;11.60;75.80;;;;;;5074044;28;20062;-63
2021/05/23 00:30:15;;;;;;;6.13;3.80;;;11.60;75.80;;;;;;5072663;28;20067;-63
2021/05/23 00:32:41;;;;;;;2.55;1.55;;;11.60;75.80;;;;;;5071625;28;20142;-63
2021/05/23 00:35:08;;;;;;;3.47;2.08;;;11.60;75.80;;;;;;5071246;28;20044;-63
2021/05/23 00:37:37;;;;;;;11.45;2.05;;;11.50;75.70;;;;;;5067393;28;20040;-63
2021/05/23 00:40:05;;;;;;;2.97;0.63;;;11.60;75.70;;;;;;5072960;28;21739;-63
2021/05/23 00:42:30;;;;;;;3.13;0.60;;;11.50;75.70;;;;;;5073726;28;20033;-63
2021/05/23 00:44:57;;;;;;;9.75;1.85;;;11.50;75.70;;;;;;5073064;28;20078;-63
2021/05/23 00:47:22;;;;;;;0.57;0.57;;;11.50;75.80;;;;;;5072597;28;20064;-63
2021/05/23 00:49:48;;;;;;;3.70;0.90;;;11.40;75.80;;;;;;5073875;28;20105;-63
2021/05/23 00:52:14;;;;;;;3.05;1.42;;;11.40;75.90;;;;;;5073000;28;20036;-63
2021/05/23 00:54:39;;;;;;;10.65;1.88;;;11.40;75.90;;;;;;5073173;28;20108;-63
2021/05/23 00:57:06;;;;;;;2.60;0.85;;;11.40;75.90;;;;;;5073561;28;20028;-63
2021/05/23 00:59:32;;;;;;;1.80;1.08;;;11.30;75.90;;;;;;5072867;28;20050;-63
2021/05/23 01:01:58;;;;;;;3.33;1.05;;;11.40;76.60;;;;;;5073646;28;20071;-63
2021/05/23 01:04:24;;;;;;;0.45;0.45;;;11.40;75.90;;;;;;5073366;28;20056;-63
2021/05/23 01:06:50;;;;;;;5.70;1.30;;;11.30;75.90;;;;;;5072323;28;20052;-63
2021/05/23 01:09:16;;;;;;;7.72;1.70;;;11.30;75.90;;;;;;5072097;28;20029;-63
2021/05/23 01:11:42;;;;;;;7.25;0.95;;;11.30;75.90;;;;;;5072794;28;20111;-63
2021/05/23 01:14:49;;;;;;;4.18;1.13;;;11.20;75.90;;;;;;5072868;28;20147;-63
2021/05/23 01:17:17;;;;;;;1.00;0.68;;;11.20;75.90;;;;;;5073364;28;20028;-63
2021/05/23 01:19:56;;;;;;;2.67;1.23;;;11.20;75.80;;;;;;5072483;28;20032;-63
2021/05/23 01:22:35;;;;;;;0.35;0.35;;;11.20;75.90;;;;;;5073363;28;20046;-63
2021/05/23 01:25:29;;;;;;;2.75;1.10;;;11.20;75.90;;;;;;5072819;28;20039;-63
2021/05/23 01:27:56;;;;;;;2.77;1.20;;;11.20;76.00;;;;;;5070751;28;20488;-63
2021/05/23 01:30:28;;;;;;;2.17;0.52;;;11.10;75.90;;;;;;5072755;28;20104;-63
2021/05/23 01:32:59;;;;;;;0.80;0.60;;;11.10;75.90;;;;;;5073151;28;20042;-63
2021/05/23 01:35:32;;;;;;;0.57;0.52;;;11.10;75.90;;;;;;5072719;28;20107;-63
2021/05/23 01:38:00;;;;;;;7.50;1.63;;;11.10;75.90;;;;;;5073080;28;20059;-63
2021/05/23 01:40:32;;;;;;;1.10;0.70;;;11.10;76.00;;;;;;5072692;28;20024;-63
2021/05/23 01:42:58;;;;;;;1.63;1.00;;;11.10;76.00;;;;;;5072133;28;20562;-63
2021/05/23 01:45:25;;;;;;;3.28;1.27;;;11.00;76.00;;;;;;5072401;28;20042;-62
2021/05/23 01:47:51;;;;;;;11.80;1.25;;;11.00;76.10;;;;;;5058083;28;20029;-63
2021/05/23 01:50:17;;;;;;;2.75;1.38;;;11.00;76.20;;;;;;5072769;28;20396;-63
2021/05/23 01:52:57;;;;;;;0.73;0.50;;;10.90;76.20;;;;;;5072509;28;20023;-63
2021/05/23 01:55:24;;;;;;;0.70;0.65;;;11.00;76.40;;;;;;5071919;28;20556;-63
2021/05/23 01:57:50;;;;;;;1.88;1.17;;;10.90;76.50;;;;;;5072474;28;20020;-63
2021/05/23 02:00:20;;;;;;;0.52;0.50;;;10.90;76.50;;;;;;5072599;28;20058;-63
2021/05/23 02:02:46;;;;;;;0.57;0.50;;;10.90;76.60;;;;;;5071719;28;20044;-63
2021/05/23 02:05:13;;;;;;;2.83;1.20;;;10.90;76.70;;;;;;5072562;28;20041;-63
2021/05/23 02:07:39;;;;;;;0.47;0.47;;;10.90;76.70;;;;;;5072284;28;20125;-63
2021/05/23 02:10:08;;;;;;;2.85;1.23;;;10.80;76.70;;;;;;5071826;28;20043;-63
2021/05/23 02:12:33;;;;;;;1.25;1.05;;;10.80;76.80;;;;;;5072732;28;20036;-62
2021/05/23 02:15:01;;;;;;;3.40;0.95;;;10.80;76.80;;;;;;5072753;28;20036;-63
2021/05/23 02:17:26;;;;;;;2.08;0.68;;;10.80;76.80;;;;;;5071884;28;20161;-63
2021/05/23 02:19:52;;;;;;;5.63;1.65;;;10.80;76.80;;;;;;5072526;28;20059;-63
2021/05/23 02:22:18;;;;;;;3.08;1.50;;;10.80;76.80;;;;;;5072318;28;20476;-63
2021/05/23 02:24:44;;;;;;;0.93;0.65;;;10.80;76.80;;;;;;5071334;28;20391;-63
2021/05/23 02:27:11;;;;;;;3.40;0.95;;;10.80;76.70;;;;;;5072638;28;20467;-63
2021/05/23 02:29:36;;;;;;;4.47;1.13;;;10.90;76.70;;;;;;5072312;28;20060;-63
2021/05/23 02:32:05;;;;;;;4.75;2.88;;;10.80;76.60;;;;;;5071520;28;20060;-63
2021/05/23 02:34:31;;;;;;;7.57;1.83;;;10.80;76.60;;;;;;5072378;28;20033;-63
2021/05/23 02:37:00;;;;;;;11.00;1.77;;;10.80;76.60;;;;;;5072062;28;20046;-63
2021/05/23 02:39:26;;;;;;;6.88;1.70;;;10.80;76.70;;;;;;5072080;28;20040;-63
2021/05/23 02:41:51;;;;;;;6.32;1.65;;;10.80;76.60;;;;;;5071945;28;20051;-63
2021/05/23 02:44:17;;;;;;;7.63;1.75;;;10.80;76.60;;;;;;5071465;28;20045;-62
2021/05/23 02:46:43;;;;;;;6.53;1.88;;;10.90;76.60;;;;;;5072059;28;20072;-63
2021/05/23 02:49:14;;;;;;;2.45;1.17;;;10.90;76.40;;;;;;5071779;28;20059;-63
2021/05/23 02:51:40;;;;;;;9.85;1.75;;;10.90;76.30;;;;;;5071369;28;20032;-63
2021/05/23 02:54:06;;;;;;;12.57;1.30;;;10.90;76.20;;;;;;5072141;28;20025;-63
2021/05/23 02:56:32;;;;;;;2.05;1.10;;;10.90;76.10;;;;;;5073720;28;20464;-63
2021/05/23 02:58:58;;;;;;;5.43;2.08;;;10.90;76.10;;;;;;5075271;28;20036;-63
2021/05/23 03:01:23;;;;;;;0.52;0.43;;;10.90;76.00;;;;;;5075564;28;20483;-63
2021/05/23 03:03:49;;;;;;;5.45;1.30;;;10.90;75.90;;;;;;5075765;28;20031;-63
2021/05/23 03:06:14;;;;;;;4.95;1.38;;;10.80;75.80;;;;;;5074523;28;20039;-63
2021/05/23 03:08:40;;;;;;;9.80;1.80;;;10.80;75.90;;;;;;5075619;28;20411;-63
2021/05/23 03:11:06;;;;;;;5.72;1.05;;;10.80;75.90;;;;;;5074321;28;20032;-63
2021/05/23 03:13:31;;;;;;;10.38;1.83;;;10.80;75.80;;;;;;5055462;28;20017;-63
2021/05/23 03:15:57;;;;;;;6.18;0.93;;;10.80;75.80;;;;;;5056139;28;20048;-63
2021/05/23 03:18:23;;;;;;;3.78;1.15;;;10.80;75.70;;;;;;5056457;28;20020;-63
2021/05/23 03:20:48;;;;;;;7.45;1.45;;;10.80;75.80;;;;;;5055259;28;20110;-63
2021/05/23 03:23:14;;;;;;;3.88;1.40;;;10.80;75.80;;;;;;5056479;28;20032;-63
2021/05/23 03:25:40;;;;;;;2.17;1.17;;;10.80;75.90;;;;;;5056278;28;20037;-63
2021/05/23 03:28:06;;;;;;;10.60;1.77;;;10.70;75.80;;;;;;5055474;28;20079;-63
2021/05/23 03:30:41;;;;;;;4.22;1.27;;;10.80;75.90;;;;;;5055816;28;20491;-63
2021/05/23 03:33:08;;;;;;;8.48;1.77;;;10.70;75.90;;;;;;5056164;28;20024;-63
2021/05/23 03:35:34;;;;;;;3.88;1.08;;;10.70;75.80;;;;;;5054968;28;20040;-63
2021/05/23 03:38:01;;;;;;;3.88;0.77;;;10.70;75.90;;;;;;5056189;28;20057;-63
2021/05/23 03:40:26;;;;;;;3.72;0.93;;;10.70;75.80;;;;;;5055342;28;20024;-62
2021/05/23 03:42:53;;;;;;;0.30;0.30;;;10.60;75.60;;;;;;5055752;28;20039;-63
2021/05/23 03:45:20;;;;;;;2.47;1.23;;;10.60;76.30;;;;;;5068361;28;20049;-63
2021/05/23 03:47:47;;;;;;;2.92;0.98;;;10.60;75.90;;;;;;5074323;28;20056;-63
2021/05/23 03:50:14;;;;;;;1.77;0.68;;;10.50;75.90;;;;;;5075159;28;20113;-63
2021/05/23 03:52:40;;;;;;;6.03;1.55;;;10.50;76.00;;;;;;5074791;28;20028;-63
2021/05/23 03:55:07;;;;;;;7.70;1.00;;;10.40;76.10;;;;;;5074237;28;20095;-63
2021/05/23 03:57:33;;;;;;;3.10;0.75;;;10.40;76.30;;;;;;5074555;28;20536;-63
2021/05/23 03:59:58;;;;;;;1.40;0.85;;;10.40;76.30;;;;;;5074679;28;20060;-63
2021/05/23 04:02:24;;;;;;;1.40;1.02;;;10.40;76.40;;;;;;5073843;28;20029;-62
2021/05/23 04:04:57;;;;;;;1.70;0.68;;;10.40;76.60;;;;;;5074318;28;20143;-62
2021/05/23 04:07:24;;;;;;;2.88;1.30;;;10.40;76.70;;;;;;5073855;28;20518;-62
2021/05/23 04:09:52;;;;;;;0.70;0.70;;;10.30;76.90;;;;;;5073678;28;20132;-63
2021/05/23 04:12:29;;;;;;;1.48;0.93;;;10.30;76.90;;;;;;5074643;28;20064;-63
2021/05/23 04:14:54;;;;;;;3.40;1.23;;;10.30;77.10;;;;;;5074243;28;20056;-62
2021/05/23 04:17:20;;;;;;;1.75;0.63;;;10.30;77.30;;;;;;5072397;28;20074;-62
2021/05/23 04:19:46;;;;;;;13.05;1.60;;;10.20;77.50;;;;;;5074189;28;20037;-63
2021/05/23 04:22:11;;;;;;;4.85;1.10;;;10.20;77.60;;;;;;5074460;28;20021;-63
2021/05/23 04:24:41;;;;;;;3.65;1.30;;;10.20;77.80;;;;;;5073463;28;20043;-62
2021/05/23 04:27:07;;;;;;;2.38;0.98;;;10.20;78.00;;;;;;5074130;28;20499;-63
2021/05/23 04:29:34;;;;;;;4.47;0.93;;;10.20;78.00;;;;;;5073810;28;20033;-62
2021/05/23 04:32:01;;;;;;;5.05;1.20;;;10.10;78.00;;;;;;5072657;28;20032;-63
2021/05/23 04:34:27;;;;;;;2.75;1.60;;;10.20;78.00;;;;;;5074274;28;20033;-62
2021/05/23 04:36:53;;;;;;;6.10;0.90;;;10.20;78.00;;;;;;5073441;28;20024;-63
2021/05/23 04:39:19;;;;;;;10.77;1.70;;;10.20;77.90;;;;;;5073990;28;20052;-63
2021/05/23 04:41:45;;;;;;;1.25;1.02;;;10.20;77.80;;;;;;5073754;28;20064;-62
2021/05/23 04:44:10;;;;;;;1.38;1.05;;;10.20;77.80;;;;;;5072944;28;20447;-63
2021/05/23 04:46:36;;;;;;;19.25;1.83;;;10.30;77.80;;;;;;5073881;28;20037;-63
2021/05/23 04:49:02;;;;;;;1.80;0.90;;;10.30;77.80;;;;;;5072150;28;20040;-63
2021/05/23 04:51:28;;;;;;;3.42;1.95;;;10.20;77.70;;;;;;5073164;28;20043;-67
2021/05/23 04:53:53;;;;;;;3.33;0.90;;;10.30;77.90;;;;;;5072998;28;20025;-62
2021/05/23 04:56:19;;;;;;;11.00;1.60;;;10.30;77.80;;;;;;5073097;28;20036;-63
2021/05/23 04:58:45;;;;;;;1.45;1.00;;;10.30;77.80;;;;;;5072472;28;20031;-63
2021/05/23 05:01:10;;;;;;;3.97;1.58;;;10.30;77.70;;;;;;5073104;28;20505;-63
2021/05/23 05:03:36;;;;;;;6.68;1.75;;;10.40;77.80;;;;;;5071276;28;20099;-63
2021/05/23 05:06:02;;;;;;;6.35;2.08;;;10.40;77.90;;;;;;5071932;28;20040;-63
2021/05/23 05:08:27;;;;;;;2.38;1.38;;;10.40;77.90;;;;;;5072698;28;20088;-63
2021/05/23 05:10:53;;;;;;;6.45;1.90;;;10.40;77.90;;;;;;5072759;28;20020;-63
2021/05/23 05:13:19;;;;;;;4.70;1.13;;;10.40;77.80;;;;;;5071802;28;20074;-62
2021/05/23 05:15:44;;;;;;;2.20;0.90;;;10.40;77.80;;;;;;5072899;28;20384;-62
2021/05/23 05:18:10;;;;;;;2.72;1.10;;;10.50;77.70;;;;;;5072349;28;20404;-62
2021/05/23 05:20:36;;;;;;;0.45;0.45;;;10.50;78.40;;;;;;5071495;28;20032;-63
2021/05/23 05:23:02;;;;;;;2.28;0.93;;;10.50;77.90;;;;;;5072615;28;20032;-63
2021/05/23 05:25:28;;;;;;;2.22;1.48;;;10.50;78.80;;;;;;5071165;28;20044;-63
2021/05/23 05:27:56;;;;;;;1.13;0.68;;;10.40;78.20;;;;;;5071944;28;20035;-63
2021/05/23 05:30:22;;;;;;;1.58;0.57;;;10.50;78.40;;;;;;5070487;28;20028;-63
2021/05/23 05:32:48;;;;;;;3.38;0.82;;;10.50;79.10;;;;;;5065884;28;20017;-63
2021/05/23 05:35:14;;;;;;;2.80;1.23;;;10.40;78.50;;;;;;5071160;28;20047;-63
2021/05/23 05:37:39;;;;;;;0.98;0.82;;;10.50;78.90;;;;;;5072269;28;20525;-63
2021/05/23 05:40:06;;;;;;;1.20;1.10;;;10.50;78.90;;;;;;5069361;28;20063;-63
2021/05/23 05:42:32;;;;;;;2.85;1.60;;;10.50;79.00;;;;;;5072234;28;20031;-63
2021/05/23 05:44:57;;;;;;;2.22;1.02;;;10.60;79.40;;;;;;5070806;28;20040;-63
2021/05/23 05:47:23;;;;;;;2.45;0.68;;;10.50;79.30;;;;;;5069602;28;20038;-63
2021/05/23 05:49:49;;;;;;;3.20;1.38;;;10.60;79.40;;;;;;5072408;28;20042;-63
2021/05/23 05:52:15;;;;;;;4.47;0.90;;;10.60;79.60;;;;;;5072079;28;20028;-63
2021/05/23 05:54:40;;;;;;;0.45;0.45;;;10.60;79.60;;;;;;5071659;28;20517;-63
2021/05/23 05:57:06;;;;;;;3.20;1.70;;;10.60;79.60;;;;;;5072324;28;20422;-63
2021/05/23 05:59:31;;;;;;;0.75;0.60;;;10.60;79.70;;;;;;5071792;28;20027;-63
2021/05/23 06:01:57;;;;;;;0.60;0.60;;;10.60;79.90;;;;;;5064425;28;20127;-63
2021/05/23 06:04:23;;;;;;;4.72;1.27;;;10.60;80.00;;;;;;5072048;28;20021;-63
2021/05/23 06:06:48;;;;;;;1.27;0.98;;;10.60;80.30;;;;;;5071883;28;20488;-63
2021/05/23 06:09:14;;;;;;;1.23;0.90;;;10.70;80.40;;;;;;5054822;28;20032;-63
2021/05/23 06:11:40;;;;;;;0.57;0.52;;;10.70;80.50;;;;;;5069430;28;20036;-63
2021/05/23 06:14:05;;;;;;;2.67;1.20;;;10.70;80.60;;;;;;5067495;28;20036;-63
2021/05/23 06:16:31;;;;;;;2.72;1.40;;;10.70;80.70;;;;;;5069268;28;20029;-63
2021/05/23 06:18:57;;;;;;;1.70;0.88;;;10.80;80.70;;;;;;5072032;28;20025;-63
2021/05/23 06:21:22;;;;;;;2.78;1.20;;;10.80;80.70;;;;;;5072019;28;20031;-63
2021/05/23 06:23:48;;;;;;;7.38;1.40;;;10.80;80.70;;;;;;5071199;28;20020;-63
2021/05/23 06:26:14;;;;;;;3.30;0.98;;;10.80;80.70;;;;;;5071520;28;20381;-63
2021/05/23 06:28:41;;;;;;;1.50;1.00;;;10.80;80.80;;;;;;5069680;28;20102;-63
2021/05/23 06:31:07;;;;;;;4.47;1.70;;;10.80;80.80;;;;;;5070549;28;20036;-63
2021/05/23 06:33:33;;;;;;;1.75;0.60;;;10.90;81.00;;;;;;5071851;28;20024;-63
2021/05/23 06:35:58;;;;;;;0.30;0.30;;;10.90;81.00;;;;;;5073120;28;20361;-63
2021/05/23 06:38:24;;;;;;;1.08;0.73;;;10.90;81.00;;;;;;5075166;28;20127;-63
2021/05/23 06:40:50;;;;;;;0.68;0.57;;;10.90;80.90;;;;;;5068155;28;20079;-63
2021/05/23 06:43:15;;;;;;;5.88;1.23;;;11.00;81.00;;;;;;5069286;28;20020;-63
2021/05/23 06:45:41;;;;;;;5.00;1.95;;;11.00;81.00;;;;;;5075164;28;20100;-63
2021/05/23 06:48:09;;;;;;;0.45;0.45;;;11.00;80.90;;;;;;5075583;28;20048;-63
2021/05/23 06:50:34;;;;;;;4.47;1.17;;;11.10;80.90;;;;;;5064039;28;20830;-63
2021/05/23 06:53:00;;;;;;;0.77;0.50;;;11.20;81.10;;;;;;5074649;28;20104;-63
2021/05/23 06:55:26;;;;;;;2.38;0.65;;;11.10;80.90;;;;;;5073228;28;20062;-63
2021/05/23 06:57:51;;;;;;;3.13;1.13;;;11.20;80.90;;;;;;5072888;28;20024;-63
2021/05/23 07:00:19;;;;;;;3.53;0.88;;;11.20;80.80;;;;;;5074803;28;20038;-63
2021/05/23 07:02:45;;;;;;;0.70;0.55;;;11.20;80.80;;;;;;5074893;28;20036;-62
2021/05/23 07:05:11;;;;;;;1.30;1.20;;;11.30;80.80;;;;;;5074484;28;20048;-63
2021/05/23 07:07:37;;;;;;;8.07;0.93;;;11.30;80.80;;;;;;5074655;28;20075;-63
2021/05/23 07:10:03;;;;;;;2.83;1.42;;;11.30;80.90;;;;;;5074670;28;20081;-63
2021/05/23 07:12:29;;;;;;;5.43;1.20;;;11.30;80.90;;;;;;5068196;28;20052;-63
2021/05/23 07:14:55;;;;;;;1.40;0.93;;;11.40;80.90;;;;;;5075018;28;20040;-65
2021/05/23 07:17:20;;;;;;;2.38;0.55;;;11.40;80.90;;;;;;5068675;28;20066;-63
2021/05/23 07:19:46;;;;;;;3.63;0.90;;;11.40;80.80;;;;;;5058409;28;20033;-65
2021/05/23 07:22:12;;;;;;;3.30;0.70;;;11.40;80.60;;;;;;5066066;28;20040;-65
2021/05/23 07:24:40;;;;;;;1.52;0.57;;;11.50;80.50;;;;;;5065977;28;20085;-65
2021/05/23 07:27:06;;;;;;;0.80;0.80;;;11.40;80.40;;;;;;5065033;28;20037;-65
2021/05/23 07:29:32;;;;;;;0.47;0.47;;;11.50;80.30;;;;;;5065543;28;20492;-65
2021/05/23 07:31:58;;;;;;;1.75;0.77;;;11.50;80.20;;;;;;5065475;28;20043;-65
2021/05/23 07:34:23;;;;;;;1.45;0.80;;;11.60;80.10;;;;;;5063092;28;20043;-65
2021/05/23 07:36:49;;;;;;;4.70;1.50;;;11.60;80.00;;;;;;5055018;28;20036;-67
2021/05/23 07:39:15;;;;;;;1.92;0.88;;;11.70;80.00;;;;;;5054551;28;20024;-71
2021/05/23 07:41:41;;;;;;;0.73;0.73;;;11.70;79.90;;;;;;5056459;28;20033;-68
2021/05/23 07:44:06;;;;;;;1.20;0.57;;;11.80;79.70;;;;;;5057169;28;20021;-64
2021/05/23 07:46:32;;;;;;;2.72;0.85;;;11.80;79.60;;;;;;5062307;28;20131;-64
2021/05/23 07:48:58;;;;;;;3.25;1.30;;;11.80;79.00;;;;;;5073271;28;20025;-66
2021/05/23 07:51:23;;;;;;;2.92;0.93;;;11.90;78.80;;;;;;5073285;28;20537;-64
2021/05/23 07:53:51;;;;;;;1.45;0.88;;;11.90;78.80;;;;;;5071774;28;20055;-64
2021/05/23 07:56:17;;;;;;;2.63;0.88;;;12.00;78.50;;;;;;5061542;28;20056;-65
2021/05/23 07:58:42;;;;;;;1.17;0.63;;;12.00;77.90;;;;;;5072855;28;20126;-65
2021/05/23 08:01:08;;;;;;;0.95;0.52;;;12.10;78.00;;;;;;5073320;28;20039;-62
2021/05/23 08:03:34;;;;;;;24.13;1.27;;;12.10;77.60;;;;;;5074181;28;20066;-62
2021/05/23 08:05:59;;;;;;;3.50;1.13;;;12.10;77.40;;;;;;5071459;28;20032;-62
2021/05/23 08:08:25;;;;;;;4.97;1.65;;;12.20;77.40;;;;;;5054883;28;20044;-63
2021/05/23 08:10:51;;;;;;;0.85;0.73;;;12.30;77.20;;;;;;5055622;28;20096;-65
2021/05/23 08:13:17;;;;;;;2.72;1.23;;;12.30;77.30;;;;;;5061450;28;20490;-68
2021/05/23 08:15:43;;;;;;;4.82;1.55;;;12.40;76.90;;;;;;5071900;28;20060;-64
2021/05/23 08:18:10;;;;;;;1.35;1.02;;;12.50;76.50;;;;;;5073747;28;20463;-64
2021/05/23 08:20:36;;;;;;;1.60;1.17;;;12.50;76.70;;;;;;5071022;28;20441;-64
2021/05/23 08:23:02;;;;;;;3.85;1.08;;;12.50;76.50;;;;;;5072297;28;20025;-64
2021/05/23 08:25:28;;;;;;;8.57;1.08;;;12.60;76.50;;;;;;5073174;28;20043;-64
2021/05/23 08:27:53;;;;;;;3.22;1.25;;;12.70;76.60;;;;;;5072779;28;20033;-65
2021/05/23 08:30:20;;;;;;;4.68;1.40;;;12.70;76.50;;;;;;5071842;28;20028;-65
2021/05/23 08:32:45;;;;;;;1.90;1.00;;;12.70;76.60;;;;;;5073544;28;20082;-65
2021/05/23 08:35:12;;;;;;;2.05;0.93;;;12.70;76.70;;;;;;5073584;28;20028;-65
2021/05/23 08:37:38;;;;;;;4.22;1.38;;;12.70;76.70;;;;;;5061699;28;20476;-65
2021/05/23 08:40:05;;;;;;;3.10;1.23;;;12.70;76.90;;;;;;5073510;28;20043;-65
2021/05/23 08:42:32;;;;;;;4.05;1.60;;;12.80;77.00;;;;;;5067556;28;20067;-65
2021/05/23 08:44:58;;;;;;;1.80;0.77;;;12.90;77.00;;;;;;5071047;28;20036;-65
2021/05/23 08:47:25;;;;;;;1.75;0.90;;;12.90;77.20;;;;;;5073249;28;20025;-65
2021/05/23 08:49:51;;;;;;;1.95;1.02;;;12.90;77.30;;;;;;5072338;28;20039;-65
2021/05/23 08:52:20;;;;;;;6.13;1.50;;;13.00;77.30;;;;;;5056189;28;20033;-63
2021/05/23 08:54:48;;;;;;;1.45;0.65;;;13.00;77.40;;;;;;5060728;28;20058;-63
2021/05/23 08:57:22;;;;;;;1.63;0.80;;;13.10;77.50;;;;;;5062822;28;20447;-63
2021/05/23 08:59:48;;;;;;;5.38;1.58;;;13.10;77.50;;;;;;5072599;28;20110;-64
2021/05/23 09:02:13;;;;;;;2.50;1.17;;;13.20;77.20;;;;;;5071710;28;20052;-63
2021/05/23 09:04:52;;;;;;;0.50;0.50;;;13.20;77.20;;;;;;5065473;28;20380;-63
2021/05/23 09:07:18;;;;;;;1.40;1.08;;;13.20;77.30;;;;;;5052597;28;20055;-63
2021/05/23 09:09:46;;;;;;;2.38;1.15;;;13.30;77.20;;;;;;5056510;28;20029;-63
2021/05/23 09:12:14;;;;;;;0.85;0.60;;;13.30;77.20;;;;;;5056998;28;20056;-66
2021/05/23 09:14:48;;;;;;;5.10;0.90;;;13.30;77.30;;;;;;5059042;28;20086;-66
2021/05/23 09:17:28;;;;;;;12.25;1.05;;;13.30;77.30;;;;;;5059913;28;20028;-66
2021/05/23 09:19:56;;;;;;;2.58;1.17;;;13.30;77.20;;;;;;5063178;28;20035;-66
2021/05/23 09:22:27;;;;;;;2.17;1.00;;;13.40;77.10;;;;;;5059322;28;20021;-64
2021/05/23 09:25:02;;;;;;;5.90;1.98;;;13.40;77.20;;;;;;5054424;28;20498;-66
2021/05/23 09:27:34;;;;;;;4.32;1.25;;;13.40;77.40;;;;;;5053965;28;20036;-63
2021/05/23 09:30:08;;;;;;;3.20;1.90;;;13.30;77.50;;;;;;5058561;28;20039;-63
2021/05/23 09:32:37;;;;;;;;;;;13.40;77.60;;;;;;5065645;28;20050;-63
2021/05/23 09:35:06;;;;;;;2.75;1.48;;;13.40;77.70;;;;;;5064192;28;19913;-63
2021/05/23 09:37:31;;;;;;;3.30;1.38;;;13.50;77.80;;;;;;5060139;28;20094;-62
2021/05/23 09:39:57;;;;;;;4.82;1.98;;;13.50;77.90;;;;;;5058701;28;20460;-63
2021/05/23 09:42:24;;;;;;;4.55;1.40;;;13.50;78.20;;;;;;5059791;28;20033;-62
2021/05/23 09:44:55;;;;;;;2.25;1.50;;;13.50;78.20;;;;;;5059964;28;20487;-62
2021/05/23 09:47:20;;;;;;;3.45;1.33;;;13.60;78.20;;;;;;5059479;28;20056;-63
2021/05/23 09:49:46;;;;;;;3.70;2.00;;;13.60;78.20;;;;;;5059597;28;20048;-62
2021/05/23 09:52:14;;;;;;;7.00;3.67;;;13.60;78.30;;;;;;5059789;28;20033;-62
2021/05/23 09:54:52;;;;;;;5.60;3.28;;;13.60;78.40;;;;;;5063200;28;20411;-63
2021/05/23 09:57:22;;;;;;;6.05;2.95;;;13.60;78.50;;;;;;5056801;28;20111;-63
2021/05/23 10:00:08;;;;;;;1.70;1.25;;;13.70;78.60;;;;;;5055868;28;20052;-63
2021/05/23 10:02:49;;;;;;;2.58;1.77;;;13.70;78.70;;;;;;5063781;28;20044;-63
2021/05/23 10:05:15;;;;;;;10.48;3.38;;;13.60;78.70;;;;;;5052197;28;20043;-63
2021/05/23 10:07:40;;;;;;;12.52;4.18;;;13.70;79.00;;;;;;5051899;28;20136;-63
2021/05/23 10:10:07;;;;;;;9.23;4.25;;;13.70;79.20;;;;;;5052848;28;20029;-63
2021/05/23 10:12:34;;;;;;;9.50;2.85;;;13.70;79.50;;;;;;5052751;28;20448;-62
2021/05/23 10:15:00;;;;;;;8.93;3.65;;;13.70;79.30;;;;;;5051972;28;20044;-63
2021/05/23 10:17:27;;;;;;;6.50;3.60;;;13.70;79.30;;;;;;5052544;28;20033;-63
2021/05/23 10:19:53;;;;;;;5.28;2.15;;;13.80;79.40;;;;;;5052508;28;20064;-63
2021/05/23 10:22:20;;;;;;;5.80;2.55;;;13.80;79.10;;;;;;5052077;28;20041;-63
2021/05/23 10:24:57;;;;;;;7.78;3.20;;;13.90;79.10;;;;;;5052481;28;20517;-63
2021/05/23 10:27:26;;;;;;;6.22;2.78;;;13.90;79.10;;;;;;5058977;28;20036;-63
2021/05/23 10:29:56;;;;;;;5.93;3.05;;;13.90;79.00;;;;;;5060263;28;20040;-62
2021/05/23 10:32:29;;;;;;;5.95;3.00;;;13.90;79.00;;;;;;5066709;28;20020;-62
2021/05/23 10:34:55;;;;;;;4.78;1.88;;;13.90;79.00;;;;;;5070735;28;20111;-63
2021/05/23 10:37:29;;;;;;;3.83;2.03;;;13.90;78.70;;;;;;5065759;28;20029;-62
2021/05/23 10:39:59;;;;;;;2.67;1.70;;;13.90;78.70;;;;;;5051609;28;20025;-63
2021/05/23 10:42:28;;;;;;;6.03;2.30;;;14.00;78.70;;;;;;5060070;28;20116;-63
2021/05/23 10:45:00;;;;;;;2.67;1.88;;;13.90;78.60;;;;;;5067956;28;20036;-63
2021/05/23 10:47:27;;;;;;;0.98;0.95;;;13.90;78.50;;;;;;5067528;28;20594;-66
2021/05/23 10:49:58;;;;;;;2.67;1.95;;;13.90;78.60;;;;;;5050976;28;20065;-65
2021/05/23 10:52:28;;;;;;;0.30;0.30;;;13.80;78.60;;;;;;5050512;28;20032;-63
2021/05/23 10:54:58;;;;;;;9.68;2.10;;;13.80;78.60;;;;;;5051402;28;20048;-63
2021/05/23 10:57:24;;;;;;;6.18;2.30;;;13.90;78.80;;;;;;5050989;28;20040;-63
2021/05/23 11:00:00;;;;;;;4.90;2.00;;;13.80;79.00;;;;;;5063508;28;20029;-64
2021/05/23 11:02:57;;;;;;;3.45;2.22;;;13.90;79.00;;;;;;5050600;28;20469;-62
2021/05/23 11:05:24;;;;;;;3.33;1.80;;;13.80;78.90;;;;;;5051227;28;20163;-62
2021/05/23 11:08:07;;;;;;;4.70;1.92;;;13.80;79.00;;;;;;5048921;28;20049;-62
2021/05/23 11:10:45;;;;;;;1.23;1.13;;;13.90;79.20;;;;;;5050419;28;20100;-62
2021/05/23 11:13:26;;;;;;;1.90;1.60;;;13.90;78.80;;;;;;5055771;28;20037;-63
2021/05/23 11:15:53;;;;;;;3.53;1.60;;;13.90;78.80;;;;;;5050564;28;20094;-66
2021/05/23 11:18:24;;;;;;;4.20;1.90;;;14.00;79.00;;;;;;5056675;28;20029;-63
2021/05/23 11:21:00;;;;;;;6.72;1.63;;;14.00;78.90;;;;;;5054875;28;20087;-66
2021/05/23 11:23:26;;;;;;;5.82;1.83;;;14.00;78.70;;;;;;5054833;28;20029;-64
2021/05/23 11:26:03;;;;;;;1.77;1.42;;;14.00;78.90;;;;;;5053449;28;20045;-62
2021/05/23 11:28:28;;;;;;;2.47;1.30;;;14.10;79.00;;;;;;5070846;28;20558;-63
2021/05/23 11:30:54;;;;;;;2.50;1.17;;;14.10;78.60;;;;;;5064713;28;20117;-62
2021/05/23 11:33:21;;;;;;;2.28;1.35;;;14.20;78.30;;;;;;5069424;28;20038;-62
2021/05/23 11:35:49;;;;;;;2.50;1.80;;;14.10;78.40;;;;;;5070979;28;20032;-62
2021/05/23 11:38:15;;;;;;;2.20;1.25;;;14.20;78.60;;;;;;5072892;28;20141;-62
2021/05/23 11:40:42;;;;;;;4.03;1.85;;;14.20;78.70;;;;;;5070971;28;20066;-62
2021/05/23 11:43:16;;;;;;;1.90;1.30;;;14.30;78.60;;;;;;5064292;28;20029;-62
2021/05/23 11:45:53;;;;;;;1.73;1.27;;;14.40;78.40;;;;;;5069292;28;20040;-63
2021/05/23 11:48:32;;;;;;;1.60;1.50;;;14.40;78.40;;;;;;5072643;28;20032;-63
2021/05/23 11:50:58;;;;;;;3.35;1.23;;;14.40;78.20;;;;;;5072276;28;20513;-62
2021/05/23 11:53:46;;;;;;;3.33;1.58;;;14.50;78.00;;;;;;5071268;28;20524;-62
2021/05/23 11:56:18;;;;;;;1.10;1.08;;;14.50;78.10;;;;;;5064361;28;20037;-62
2021/05/23 11:58:55;;;;;;;0.90;0.75;;;14.60;77.90;;;;;;5072771;28;20499;-62
2021/05/23 12:01:29;;;;;;;2.08;1.40;;;14.50;78.20;;;;;;5071808;28;20392;-62
2021/05/23 12:04:02;;;;;;;3.05;1.77;;;14.60;78.50;;;;;;5068006;28;20096;-62
2021/05/23 12:06:30;;;;;;;2.30;1.17;;;14.60;78.80;;;;;;5071850;28;20048;-63
2021/05/23 12:09:10;;;;;;;0.60;0.60;;;14.60;79.00;;;;;;5071521;28;20527;-62
2021/05/23 12:11:41;;;;;;;5.60;1.30;;;14.60;79.10;;;;;;5062665;28;20044;-63
2021/05/23 12:14:25;;;;;;;1.58;1.20;;;14.70;79.40;;;;;;5067613;28;20029;-63
2021/05/23 12:16:58;;;;;;;;;;;14.70;79.70;;;;;;5067750;28;20067;-63
2021/05/23 12:19:44;;;;;;;0.90;0.90;;;14.70;79.60;;;;;;5067970;28;20439;-63
2021/05/23 12:22:11;;;;;;;0.80;0.80;;;14.70;79.80;;;;;;5071043;28;20048;-63
2021/05/23 12:24:38;;;;;;;13.75;1.38;;;14.70;79.80;;;;;;5066833;28;20465;-63
2021/05/23 12:27:04;;;;;;;1.70;1.40;;;14.70;80.00;;;;;;5072437;28;20079;-63
2021/05/23 12:29:29;;;;;;;1.40;1.27;;;14.70;79.80;;;;;;5071656;28;20024;-63
2021/05/23 12:31:55;;;;;;;1.83;1.35;;;14.70;79.60;;;;;;5071803;28;20024;-63
2021/05/23 12:34:20;;;;;;;2.85;1.92;;;14.70;79.60;;;;;;5071903;28;20024;-63
2021/05/23 12:36:46;;;;;;;1.30;1.20;;;14.70;79.60;;;;;;5071449;28;20043;-63
2021/05/23 12:39:12;;;;;;;1.33;1.23;;;14.80;79.80;;;;;;5072618;28;20028;-63
2021/05/23 12:41:44;;;;;;;3.83;1.90;;;14.80;79.90;;;;;;5072198;28;20032;-63
2021/05/23 12:44:29;;;;;;;1.52;1.05;;;14.80;79.90;;;;;;5071179;28;20032;-63
2021/05/23 12:46:55;;;;;;;1.67;1.58;;;14.90;80.10;;;;;;5072621;28;20067;-63
2021/05/23 12:49:26;;;;;;;1.95;1.20;;;14.90;79.80;;;;;;5070533;28;20020;-63
2021/05/23 12:51:53;;;;;;;1.58;1.05;;;14.90;79.70;;;;;;5069612;28;20028;-64